sensor_id;sensor_type;location;lat;lon;timestamp;temperature;humidity
22290;DHT22;11313;50.116;8.424;2023-01-29T00:01:37;25.90;40.40
22290;DHT22;11313;50.116;8.424;2023-01-29T00:04:03;25.90;40.50
22290;DHT22;11313;50.116;8.424;2023-01-29T00:06:28;25.90;40.50
22290;DHT22;11313;50.116;8.424;2023-01-29T00:08:54;25.80;40.40
22290;DHT22;11313;50.116;8.424;2023-01-29T00:11:19;25.80;40.40
22290;DHT22;11313;50.116;8.424;2023-01-29T00:13:45;25.80;40.40
22290;DHT22;11313;50.116;8.424;2023-01-29T00:16:10;25.80;40.50
22290;DHT22;11313;50.116;8.424;2023-01-29T00:18:40;25.80;40.50
22290;DHT22;11313;50.116;8.424;2023-01-29T00:21:13;25.80;40.50
22290;DHT22;11313;50.116;8.424;2023-01-29T00:23:39;25.80;40.50
22290;DHT22;11313;50.116;8.424;2023-01-29T00:26:05;25.80;40.60
22290;DHT22;11313;50.116;8.424;2023-01-29T00:28:31;25.70;40.50
22290;DHT22;11313;50.116;8.424;2023-01-29T00:30:57;25.70;40.40
22290;DHT22;11313;50.116;8.424;2023-01-29T00:33:22;25.70;40.50
22290;DHT22;11313;50.116;8.424;2023-01-29T00:35:48;25.70;40.50
22290;DHT22;11313;50.116;8.424;2023-01-29T00:38:13;25.70;40.50
22290;DHT22;11313;50.116;8.424;2023-01-29T00:40:39;25.70;40.50
22290;DHT22;11313;50.116;8.424;2023-01-29T00:43:24;25.70;40.60
22290;DHT22;11313;50.116;8.424;2023-01-29T00:46:09;25.70;40.60
22290;DHT22;11313;50.116;8.424;2023-01-29T00:48:34;25.70;41.30
22290;DHT22;11313;50.116;8.424;2023-01-29T00:51:01;25.70;40.70
22290;DHT22;11313;50.116;8.424;2023-01-29T00:53:27;25.70;40.70
22290;DHT22;11313;50.116;8.424;2023-01-29T00:55:53;25.70;40.70
22290;DHT22;11313;50.116;8.424;2023-01-29T00:58:18;25.60;40.70
22290;DHT22;11313;50.116;8.424;2023-01-29T01:00:49;25.60;40.70
22290;DHT22;11313;50.116;8.424;2023-01-29T01:03:15;25.60;40.70
22290;DHT22;11313;50.116;8.424;2023-01-29T01:05:41;25.60;40.70
22290;DHT22;11313;50.116;8.424;2023-01-29T01:08:07;25.60;40.70
22290;DHT22;11313;50.116;8.424;2023-01-29T01:11:05;25.60;40.70
22290;DHT22;11313;50.116;8.424;2023-01-29T01:13:32;25.60;40.80
22290;DHT22;11313;50.116;8.424;2023-01-29T01:15:58;25.60;40.80
22290;DHT22;11313;50.116;8.424;2023-01-29T01:18:24;25.60;40.80
22290;DHT22;11313;50.116;8.424;2023-01-29T01:20:49;25.50;40.70
22290;DHT22;11313;50.116;8.424;2023-01-29T01:23:22;25.50;40.80
22290;DHT22;11313;50.116;8.424;2023-01-29T01:25:47;25.60;40.80
22290;DHT22;11313;50.116;8.424;2023-01-29T01:28:13;25.50;40.80
22290;DHT22;11313;50.116;8.424;2023-01-29T01:30:38;25.50;40.80
22290;DHT22;11313;50.116;8.424;2023-01-29T01:33:04;25.50;40.90
22290;DHT22;11313;50.116;8.424;2023-01-29T01:35:29;25.50;40.90
22290;DHT22;11313;50.116;8.424;2023-01-29T01:37:55;25.50;40.90
22290;DHT22;11313;50.116;8.424;2023-01-29T01:40:22;25.50;40.90
22290;DHT22;11313;50.116;8.424;2023-01-29T01:42:50;25.50;40.90
22290;DHT22;11313;50.116;8.424;2023-01-29T01:45:24;25.50;40.90
22290;DHT22;11313;50.116;8.424;2023-01-29T01:47:53;25.50;40.90
22290;DHT22;11313;50.116;8.424;2023-01-29T01:52:51;25.50;40.90
22290;DHT22;11313;50.116;8.424;2023-01-29T01:55:20;25.50;40.90
22290;DHT22;11313;50.116;8.424;2023-01-29T01:57:50;25.50;40.90
22290;DHT22;11313;50.116;8.424;2023-01-29T02:00:17;25.50;40.90
22290;DHT22;11313;50.116;8.424;2023-01-29T02:02:45;25.50;40.90
22290;DHT22;11313;50.116;8.424;2023-01-29T02:05:31;25.50;40.90
22290;DHT22;11313;50.116;8.424;2023-01-29T02:08:24;25.50;40.90
22290;DHT22;11313;50.116;8.424;2023-01-29T02:11:10;25.50;40.90
22290;DHT22;11313;50.116;8.424;2023-01-29T02:13:36;25.60;40.90
22290;DHT22;11313;50.116;8.424;2023-01-29T02:16:01;25.50;40.90
22290;DHT22;11313;50.116;8.424;2023-01-29T02:18:27;25.50;41.50
22290;DHT22;11313;50.116;8.424;2023-01-29T02:21:06;25.60;40.90
22290;DHT22;11313;50.116;8.424;2023-01-29T02:23:53;25.60;40.90
22290;DHT22;11313;50.116;8.424;2023-01-29T02:29:25;25.60;40.80
22290;DHT22;11313;50.116;8.424;2023-01-29T02:34:55;25.60;40.80
22290;DHT22;11313;50.116;8.424;2023-01-29T02:40:51;25.60;40.80
22290;DHT22;11313;50.116;8.424;2023-01-29T02:43:32;25.60;40.70
22290;DHT22;11313;50.116;8.424;2023-01-29T02:51:33;25.70;40.90
22290;DHT22;11313;50.116;8.424;2023-01-29T02:54:19;25.70;40.80
22290;DHT22;11313;50.116;8.424;2023-01-29T02:56:57;25.70;40.80
22290;DHT22;11313;50.116;8.424;2023-01-29T02:59:34;25.70;40.80
22290;DHT22;11313;50.116;8.424;2023-01-29T03:02:08;25.70;40.70
22290;DHT22;11313;50.116;8.424;2023-01-29T03:04:40;25.70;40.70
22290;DHT22;11313;50.116;8.424;2023-01-29T03:07:09;25.70;40.70
22290;DHT22;11313;50.116;8.424;2023-01-29T03:10:01;25.70;40.70
22290;DHT22;11313;50.116;8.424;2023-01-29T03:12:29;25.70;40.70
22290;DHT22;11313;50.116;8.424;2023-01-29T03:15:01;25.70;40.70
22290;DHT22;11313;50.116;8.424;2023-01-29T03:18:01;25.70;40.70
22290;DHT22;11313;50.116;8.424;2023-01-29T03:20:34;25.70;40.70
22290;DHT22;11313;50.116;8.424;2023-01-29T03:23:12;25.70;40.70
22290;DHT22;11313;50.116;8.424;2023-01-29T03:25:40;25.70;40.70
22290;DHT22;11313;50.116;8.424;2023-01-29T03:28:26;25.70;40.70
22290;DHT22;11313;50.116;8.424;2023-01-29T03:31:13;25.70;40.60
22290;DHT22;11313;50.116;8.424;2023-01-29T03:34:11;25.70;40.70
22290;DHT22;11313;50.116;8.424;2023-01-29T03:36:57;25.70;40.70
22290;DHT22;11313;50.116;8.424;2023-01-29T03:39:26;25.70;40.70
22290;DHT22;11313;50.116;8.424;2023-01-29T03:41:57;25.70;40.70
22290;DHT22;11313;50.116;8.424;2023-01-29T03:47:23;25.70;40.70
22290;DHT22;11313;50.116;8.424;2023-01-29T03:50:10;25.70;40.70
22290;DHT22;11313;50.116;8.424;2023-01-29T03:53:07;25.70;40.70
22290;DHT22;11313;50.116;8.424;2023-01-29T03:55:42;25.70;40.70
22290;DHT22;11313;50.116;8.424;2023-01-29T03:58:22;25.70;40.80
22290;DHT22;11313;50.116;8.424;2023-01-29T04:00:56;25.70;40.80
22290;DHT22;11313;50.116;8.424;2023-01-29T04:03:37;25.70;40.80
22290;DHT22;11313;50.116;8.424;2023-01-29T04:06:19;25.70;40.80
22290;DHT22;11313;50.116;8.424;2023-01-29T04:08:51;25.70;40.80
22290;DHT22;11313;50.116;8.424;2023-01-29T04:11:21;25.70;40.80
22290;DHT22;11313;50.116;8.424;2023-01-29T04:13:47;25.70;40.80
22290;DHT22;11313;50.116;8.424;2023-01-29T04:16:17;25.70;40.80
22290;DHT22;11313;50.116;8.424;2023-01-29T04:18:46;25.70;40.90
22290;DHT22;11313;50.116;8.424;2023-01-29T04:21:13;25.60;40.80
22290;DHT22;11313;50.116;8.424;2023-01-29T04:23:39;25.60;40.80
22290;DHT22;11313;50.116;8.424;2023-01-29T04:26:24;25.60;40.80
22290;DHT22;11313;50.116;8.424;2023-01-29T04:29:20;25.60;40.80
22290;DHT22;11313;50.116;8.424;2023-01-29T04:31:59;25.60;40.80
22290;DHT22;11313;50.116;8.424;2023-01-29T04:34:41;25.60;40.90
22290;DHT22;11313;50.116;8.424;2023-01-29T04:37:15;25.60;40.80
22290;DHT22;11313;50.116;8.424;2023-01-29T04:39:53;25.60;40.90
22290;DHT22;11313;50.116;8.424;2023-01-29T04:42:43;25.60;41.50
22290;DHT22;11313;50.116;8.424;2023-01-29T04:48:08;25.60;40.90
22290;DHT22;11313;50.116;8.424;2023-01-29T04:50:45;25.60;40.90
22290;DHT22;11313;50.116;8.424;2023-01-29T04:53:20;25.60;40.90
22290;DHT22;11313;50.116;8.424;2023-01-29T04:55:50;25.60;40.90
22290;DHT22;11313;50.116;8.424;2023-01-29T04:58:34;25.60;40.90
22290;DHT22;11313;50.116;8.424;2023-01-29T05:01:06;25.60;40.90
22290;DHT22;11313;50.116;8.424;2023-01-29T05:03:36;25.60;40.90
22290;DHT22;11313;50.116;8.424;2023-01-29T05:06:03;25.60;40.90
22290;DHT22;11313;50.116;8.424;2023-01-29T05:08:31;25.50;40.90
22290;DHT22;11313;50.116;8.424;2023-01-29T05:10:58;25.50;40.90
22290;DHT22;11313;50.116;8.424;2023-01-29T05:13:24;25.50;40.90
22290;DHT22;11313;50.116;8.424;2023-01-29T05:15:59;25.60;40.90
22290;DHT22;11313;50.116;8.424;2023-01-29T05:18:26;25.50;40.90
22290;DHT22;11313;50.116;8.424;2023-01-29T05:20:55;25.50;40.90
22290;DHT22;11313;50.116;8.424;2023-01-29T05:23:22;25.60;41.00
22290;DHT22;11313;50.116;8.424;2023-01-29T05:25:49;25.50;40.90
22290;DHT22;11313;50.116;8.424;2023-01-29T05:28:14;25.60;41.00
22290;DHT22;11313;50.116;8.424;2023-01-29T05:30:48;25.50;40.90
22290;DHT22;11313;50.116;8.424;2023-01-29T05:33:17;25.50;40.90
22290;DHT22;11313;50.116;8.424;2023-01-29T05:35:43;25.50;40.90
22290;DHT22;11313;50.116;8.424;2023-01-29T05:38:08;25.50;40.90
22290;DHT22;11313;50.116;8.424;2023-01-29T05:40:34;25.50;40.90
22290;DHT22;11313;50.116;8.424;2023-01-29T05:43:00;25.50;41.00
22290;DHT22;11313;50.116;8.424;2023-01-29T05:45:26;25.50;41.00
22290;DHT22;11313;50.116;8.424;2023-01-29T05:47:55;25.50;40.90
22290;DHT22;11313;50.116;8.424;2023-01-29T05:50:22;25.50;41.00
22290;DHT22;11313;50.116;8.424;2023-01-29T05:52:48;25.60;41.00
22290;DHT22;11313;50.116;8.424;2023-01-29T05:55:13;25.60;41.00
22290;DHT22;11313;50.116;8.424;2023-01-29T05:57:40;25.60;41.00
22290;DHT22;11313;50.116;8.424;2023-01-29T06:00:06;25.60;40.90
22290;DHT22;11313;50.116;8.424;2023-01-29T06:02:32;25.60;40.90
22290;DHT22;11313;50.116;8.424;2023-01-29T06:04:58;25.60;41.00
22290;DHT22;11313;50.116;8.424;2023-01-29T06:07:24;25.60;40.90
22290;DHT22;11313;50.116;8.424;2023-01-29T06:09:49;25.60;40.90
22290;DHT22;11313;50.116;8.424;2023-01-29T06:12:14;25.60;40.90
22290;DHT22;11313;50.116;8.424;2023-01-29T06:14:40;25.60;40.90
22290;DHT22;11313;50.116;8.424;2023-01-29T06:17:05;25.60;40.90
22290;DHT22;11313;50.116;8.424;2023-01-29T06:19:31;25.60;40.90
22290;DHT22;11313;50.116;8.424;2023-01-29T06:21:56;25.60;40.90
22290;DHT22;11313;50.116;8.424;2023-01-29T06:24:22;25.70;41.00
22290;DHT22;11313;50.116;8.424;2023-01-29T06:26:47;25.60;40.80
22290;DHT22;11313;50.116;8.424;2023-01-29T06:29:13;25.70;40.90
22290;DHT22;11313;50.116;8.424;2023-01-29T06:31:38;25.70;40.90
22290;DHT22;11313;50.116;8.424;2023-01-29T06:34:05;25.70;40.80
22290;DHT22;11313;50.116;8.424;2023-01-29T06:36:31;25.70;40.90
22290;DHT22;11313;50.116;8.424;2023-01-29T06:38:56;25.70;40.80
22290;DHT22;11313;50.116;8.424;2023-01-29T06:41:23;25.70;41.50
22290;DHT22;11313;50.116;8.424;2023-01-29T06:43:50;25.70;40.80
22290;DHT22;11313;50.116;8.424;2023-01-29T06:46:15;25.70;40.80
22290;DHT22;11313;50.116;8.424;2023-01-29T06:48:41;25.70;40.80
22290;DHT22;11313;50.116;8.424;2023-01-29T06:51:08;25.70;40.80
22290;DHT22;11313;50.116;8.424;2023-01-29T06:53:34;25.70;40.80
22290;DHT22;11313;50.116;8.424;2023-01-29T06:56:00;25.70;40.80
22290;DHT22;11313;50.116;8.424;2023-01-29T06:58:26;25.70;40.70
22290;DHT22;11313;50.116;8.424;2023-01-29T07:00:51;25.70;40.70
22290;DHT22;11313;50.116;8.424;2023-01-29T07:03:17;25.70;40.70
22290;DHT22;11313;50.116;8.424;2023-01-29T07:05:48;25.70;40.80
22290;DHT22;11313;50.116;8.424;2023-01-29T07:08:14;25.70;40.70
22290;DHT22;11313;50.116;8.424;2023-01-29T07:10:39;25.70;40.70
22290;DHT22;11313;50.116;8.424;2023-01-29T07:13:05;25.70;40.70
22290;DHT22;11313;50.116;8.424;2023-01-29T07:15:30;25.70;40.70
22290;DHT22;11313;50.116;8.424;2023-01-29T07:17:57;25.80;40.80
22290;DHT22;11313;50.116;8.424;2023-01-29T07:20:27;25.80;40.70
22290;DHT22;11313;50.116;8.424;2023-01-29T07:22:54;25.70;40.70
22290;DHT22;11313;50.116;8.424;2023-01-29T07:25:21;25.80;40.80
22290;DHT22;11313;50.116;8.424;2023-01-29T07:27:46;25.70;40.70
22290;DHT22;11313;50.116;8.424;2023-01-29T07:30:12;25.70;40.70
22290;DHT22;11313;50.116;8.424;2023-01-29T07:32:38;25.70;40.80
22290;DHT22;11313;50.116;8.424;2023-01-29T07:35:04;25.70;40.80
22290;DHT22;11313;50.116;8.424;2023-01-29T07:37:29;25.70;40.80
22290;DHT22;11313;50.116;8.424;2023-01-29T07:39:55;25.70;40.80
22290;DHT22;11313;50.116;8.424;2023-01-29T07:42:20;25.70;40.80
22290;DHT22;11313;50.116;8.424;2023-01-29T07:44:46;25.70;40.80
22290;DHT22;11313;50.116;8.424;2023-01-29T07:47:11;25.70;40.80
22290;DHT22;11313;50.116;8.424;2023-01-29T07:49:37;25.70;40.80
22290;DHT22;11313;50.116;8.424;2023-01-29T07:52:02;25.70;40.80
22290;DHT22;11313;50.116;8.424;2023-01-29T07:54:28;25.70;40.80
22290;DHT22;11313;50.116;8.424;2023-01-29T07:56:53;25.70;40.80
22290;DHT22;11313;50.116;8.424;2023-01-29T07:59:19;25.70;40.80
22290;DHT22;11313;50.116;8.424;2023-01-29T08:01:45;25.70;40.80
22290;DHT22;11313;50.116;8.424;2023-01-29T08:04:10;25.70;40.80
22290;DHT22;11313;50.116;8.424;2023-01-29T08:06:36;25.70;40.80
22290;DHT22;11313;50.116;8.424;2023-01-29T08:09:01;25.60;40.70
22290;DHT22;11313;50.116;8.424;2023-01-29T08:11:27;25.60;40.70
22290;DHT22;11313;50.116;8.424;2023-01-29T08:13:53;25.60;40.70
22290;DHT22;11313;50.116;8.424;2023-01-29T08:16:19;25.60;40.70
22290;DHT22;11313;50.116;8.424;2023-01-29T08:18:45;25.60;40.70
22290;DHT22;11313;50.116;8.424;2023-01-29T08:21:13;25.60;40.70
22290;DHT22;11313;50.116;8.424;2023-01-29T08:23:38;25.60;40.70
22290;DHT22;11313;50.116;8.424;2023-01-29T08:26:04;25.60;40.70
22290;DHT22;11313;50.116;8.424;2023-01-29T08:28:30;25.60;40.70
22290;DHT22;11313;50.116;8.424;2023-01-29T08:30:55;25.60;40.70
22290;DHT22;11313;50.116;8.424;2023-01-29T08:33:21;25.60;40.70
22290;DHT22;11313;50.116;8.424;2023-01-29T08:35:50;25.60;40.70
22290;DHT22;11313;50.116;8.424;2023-01-29T08:38:16;25.60;40.70
22290;DHT22;11313;50.116;8.424;2023-01-29T08:40:42;25.60;41.40
22290;DHT22;11313;50.116;8.424;2023-01-29T08:43:10;25.70;40.80
22290;DHT22;11313;50.116;8.424;2023-01-29T08:45:38;25.60;40.70
22290;DHT22;11313;50.116;8.424;2023-01-29T08:48:04;25.60;40.70
22290;DHT22;11313;50.116;8.424;2023-01-29T08:50:29;25.60;40.70
22290;DHT22;11313;50.116;8.424;2023-01-29T08:52:57;25.60;40.70
22290;DHT22;11313;50.116;8.424;2023-01-29T08:55:23;25.60;40.70
22290;DHT22;11313;50.116;8.424;2023-01-29T08:57:49;25.60;40.70
22290;DHT22;11313;50.116;8.424;2023-01-29T09:00:15;25.70;40.80
22290;DHT22;11313;50.116;8.424;2023-01-29T09:02:40;25.70;40.70
22290;DHT22;11313;50.116;8.424;2023-01-29T09:05:06;25.60;40.70
22290;DHT22;11313;50.116;8.424;2023-01-29T09:07:32;25.70;40.80
22290;DHT22;11313;50.116;8.424;2023-01-29T09:09:58;25.70;40.70
22290;DHT22;11313;50.116;8.424;2023-01-29T09:12:23;25.70;40.70
22290;DHT22;11313;50.116;8.424;2023-01-29T09:14:49;25.70;40.70
22290;DHT22;11313;50.116;8.424;2023-01-29T09:17:14;25.60;40.70
22290;DHT22;11313;50.116;8.424;2023-01-29T09:19:40;25.60;40.70
22290;DHT22;11313;50.116;8.424;2023-01-29T09:22:05;25.60;40.70
22290;DHT22;11313;50.116;8.424;2023-01-29T09:24:31;25.60;40.70
22290;DHT22;11313;50.116;8.424;2023-01-29T09:26:57;25.70;40.70
22290;DHT22;11313;50.116;8.424;2023-01-29T09:29:22;25.60;40.70
22290;DHT22;11313;50.116;8.424;2023-01-29T09:31:48;25.60;40.70
22290;DHT22;11313;50.116;8.424;2023-01-29T09:34:13;25.60;40.70
22290;DHT22;11313;50.116;8.424;2023-01-29T09:36:39;25.70;40.80
22290;DHT22;11313;50.116;8.424;2023-01-29T09:39:05;25.60;40.70
22290;DHT22;11313;50.116;8.424;2023-01-29T09:44:23;25.60;40.70
22290;DHT22;11313;50.116;8.424;2023-01-29T09:46:52;25.60;40.70
22290;DHT22;11313;50.116;8.424;2023-01-29T09:49:25;25.60;40.70
22290;DHT22;11313;50.116;8.424;2023-01-29T09:52:15;25.60;40.70
22290;DHT22;11313;50.116;8.424;2023-01-29T09:54:58;25.60;40.70
22290;DHT22;11313;50.116;8.424;2023-01-29T09:57:32;25.60;40.70
22290;DHT22;11313;50.116;8.424;2023-01-29T09:59:58;25.60;40.70
22290;DHT22;11313;50.116;8.424;2023-01-29T10:05:51;25.60;40.70
22290;DHT22;11313;50.116;8.424;2023-01-29T10:11:28;25.60;40.70
22290;DHT22;11313;50.116;8.424;2023-01-29T10:14:16;25.70;40.70
22290;DHT22;11313;50.116;8.424;2023-01-29T10:24:53;25.70;40.70
22290;DHT22;11313;50.116;8.424;2023-01-29T10:27:22;25.70;40.70
22290;DHT22;11313;50.116;8.424;2023-01-29T10:29:51;25.70;40.70
22290;DHT22;11313;50.116;8.424;2023-01-29T10:32:21;25.70;40.70
22290;DHT22;11313;50.116;8.424;2023-01-29T10:34:59;25.70;40.70
22290;DHT22;11313;50.116;8.424;2023-01-29T10:37:38;25.70;40.70
22290;DHT22;11313;50.116;8.424;2023-01-29T10:40:21;25.70;40.70
22290;DHT22;11313;50.116;8.424;2023-01-29T10:43:15;25.70;40.70
22290;DHT22;11313;50.116;8.424;2023-01-29T10:46:12;25.70;40.70
22290;DHT22;11313;50.116;8.424;2023-01-29T10:51:43;25.70;40.60
22290;DHT22;11313;50.116;8.424;2023-01-29T11:02:47;25.70;40.40
22290;DHT22;11313;50.116;8.424;2023-01-29T11:07:48;25.70;40.30
22290;DHT22;11313;50.116;8.424;2023-01-29T11:10:20;25.70;40.20
22290;DHT22;11313;50.116;8.424;2023-01-29T11:12:48;25.70;40.10
22290;DHT22;11313;50.116;8.424;2023-01-29T11:15:31;25.70;40.00
22290;DHT22;11313;50.116;8.424;2023-01-29T11:18:08;25.70;40.10
22290;DHT22;11313;50.116;8.424;2023-01-29T11:20:37;25.70;40.10
22290;DHT22;11313;50.116;8.424;2023-01-29T11:23:03;25.70;40.00
22290;DHT22;11313;50.116;8.424;2023-01-29T11:25:29;25.80;40.00
22290;DHT22;11313;50.116;8.424;2023-01-29T11:28:00;25.80;40.00
22290;DHT22;11313;50.116;8.424;2023-01-29T11:30:35;25.80;39.90
22290;DHT22;11313;50.116;8.424;2023-01-29T11:35:33;25.80;40.00
22290;DHT22;11313;50.116;8.424;2023-01-29T11:40:42;25.80;40.00
22290;DHT22;11313;50.116;8.424;2023-01-29T11:43:27;25.80;40.00
22290;DHT22;11313;50.116;8.424;2023-01-29T11:45:57;25.80;40.00
22290;DHT22;11313;50.116;8.424;2023-01-29T11:48:32;25.80;40.00
22290;DHT22;11313;50.116;8.424;2023-01-29T11:51:00;25.80;40.00
22290;DHT22;11313;50.116;8.424;2023-01-29T11:53:43;25.90;40.10
22290;DHT22;11313;50.116;8.424;2023-01-29T11:56:31;25.90;40.10
22290;DHT22;11313;50.116;8.424;2023-01-29T11:58:58;25.90;40.10
22290;DHT22;11313;50.116;8.424;2023-01-29T12:03:59;25.90;40.10
22290;DHT22;11313;50.116;8.424;2023-01-29T12:06:35;25.90;40.10
22290;DHT22;11313;50.116;8.424;2023-01-29T12:09:09;25.90;40.10
22290;DHT22;11313;50.116;8.424;2023-01-29T12:11:35;25.90;40.10
22290;DHT22;11313;50.116;8.424;2023-01-29T12:14:04;25.90;40.10
22290;DHT22;11313;50.116;8.424;2023-01-29T12:16:43;26.00;40.10
22290;DHT22;11313;50.116;8.424;2023-01-29T12:19:23;25.90;40.00
22290;DHT22;11313;50.116;8.424;2023-01-29T12:22:14;26.00;40.00
22290;DHT22;11313;50.116;8.424;2023-01-29T12:27:18;26.00;39.90
22290;DHT22;11313;50.116;8.424;2023-01-29T12:30:05;26.00;39.90
22290;DHT22;11313;50.116;8.424;2023-01-29T12:35:10;26.00;39.90
22290;DHT22;11313;50.116;8.424;2023-01-29T12:40:16;26.00;39.90
22290;DHT22;11313;50.116;8.424;2023-01-29T12:42:46;26.00;39.90
22290;DHT22;11313;50.116;8.424;2023-01-29T12:45:22;26.00;39.90
22290;DHT22;11313;50.116;8.424;2023-01-29T12:47:54;26.00;40.00
22290;DHT22;11313;50.116;8.424;2023-01-29T12:50:31;26.00;39.90
22290;DHT22;11313;50.116;8.424;2023-01-29T12:53:00;26.00;39.90
22290;DHT22;11313;50.116;8.424;2023-01-29T12:55:42;26.00;39.90
22290;DHT22;11313;50.116;8.424;2023-01-29T13:00:49;26.00;40.00
22290;DHT22;11313;50.116;8.424;2023-01-29T13:03:58;26.00;40.00
22290;DHT22;11313;50.116;8.424;2023-01-29T13:06:14;26.00;40.00
22290;DHT22;11313;50.116;8.424;2023-01-29T13:08:48;26.00;40.00
22290;DHT22;11313;50.116;8.424;2023-01-29T13:11:25;26.00;40.00
22290;DHT22;11313;50.116;8.424;2023-01-29T13:14:00;26.00;40.00
22290;DHT22;11313;50.116;8.424;2023-01-29T13:16:34;26.00;40.00
22290;DHT22;11313;50.116;8.424;2023-01-29T13:19:05;26.00;40.00
22290;DHT22;11313;50.116;8.424;2023-01-29T13:21:38;26.00;40.00
22290;DHT22;11313;50.116;8.424;2023-01-29T13:24:11;26.00;40.00
22290;DHT22;11313;50.116;8.424;2023-01-29T13:26:39;26.00;40.10
22290;DHT22;11313;50.116;8.424;2023-01-29T13:29:05;26.00;40.10
22290;DHT22;11313;50.116;8.424;2023-01-29T13:31:36;26.00;40.10
22290;DHT22;11313;50.116;8.424;2023-01-29T13:34:15;26.00;40.20
22290;DHT22;11313;50.116;8.424;2023-01-29T13:36:54;26.00;40.20
22290;DHT22;11313;50.116;8.424;2023-01-29T13:41:51;26.00;40.20
22290;DHT22;11313;50.116;8.424;2023-01-29T13:44:21;26.00;40.20
22290;DHT22;11313;50.116;8.424;2023-01-29T13:46:59;25.90;40.20
22290;DHT22;11313;50.116;8.424;2023-01-29T13:49:38;26.00;40.20
22290;DHT22;11313;50.116;8.424;2023-01-29T13:54:55;25.90;40.20
22290;DHT22;11313;50.116;8.424;2023-01-29T14:08:01;26.00;40.10
22290;DHT22;11313;50.116;8.424;2023-01-29T14:10:29;25.90;40.00
22290;DHT22;11313;50.116;8.424;2023-01-29T14:15:35;25.90;40.00
22290;DHT22;11313;50.116;8.424;2023-01-29T14:18:19;25.90;39.90
22290;DHT22;11313;50.116;8.424;2023-01-29T14:20:58;25.90;39.90
22290;DHT22;11313;50.116;8.424;2023-01-29T14:23:37;25.90;39.90
22290;DHT22;11313;50.116;8.424;2023-01-29T14:26:19;25.90;39.90
22290;DHT22;11313;50.116;8.424;2023-01-29T14:28:56;25.90;39.90
22290;DHT22;11313;50.116;8.424;2023-01-29T14:34:06;25.90;39.90
22290;DHT22;11313;50.116;8.424;2023-01-29T14:36:44;25.90;39.90
22290;DHT22;11313;50.116;8.424;2023-01-29T14:39:49;25.90;39.90
22290;DHT22;11313;50.116;8.424;2023-01-29T14:42:24;26.00;40.00
22290;DHT22;11313;50.116;8.424;2023-01-29T14:47:20;26.00;40.00
22290;DHT22;11313;50.116;8.424;2023-01-29T14:49:54;26.00;40.00
22290;DHT22;11313;50.116;8.424;2023-01-29T14:52:38;26.00;40.00
22290;DHT22;11313;50.116;8.424;2023-01-29T14:55:12;26.00;40.00
22290;DHT22;11313;50.116;8.424;2023-01-29T14:57:41;26.00;40.00
22290;DHT22;11313;50.116;8.424;2023-01-29T15:00:16;26.00;40.00
22290;DHT22;11313;50.116;8.424;2023-01-29T15:02:43;26.00;40.00
22290;DHT22;11313;50.116;8.424;2023-01-29T15:05:21;26.00;40.00
22290;DHT22;11313;50.116;8.424;2023-01-29T15:08:20;26.00;40.00
22290;DHT22;11313;50.116;8.424;2023-01-29T15:10:53;26.00;40.70
22290;DHT22;11313;50.116;8.424;2023-01-29T15:14:00;26.00;40.00
22290;DHT22;11313;50.116;8.424;2023-01-29T15:16:35;26.10;40.10
22290;DHT22;11313;50.116;8.424;2023-01-29T15:19:15;26.10;40.10
22290;DHT22;11313;50.116;8.424;2023-01-29T15:22:21;26.10;40.00
22290;DHT22;11313;50.116;8.424;2023-01-29T15:25:13;26.10;40.00
22290;DHT22;11313;50.116;8.424;2023-01-29T15:27:42;26.10;40.00
22290;DHT22;11313;50.116;8.424;2023-01-29T15:30:17;26.10;40.00
22290;DHT22;11313;50.116;8.424;2023-01-29T15:32:45;26.10;40.00
22290;DHT22;11313;50.116;8.424;2023-01-29T15:35:30;26.10;40.00
22290;DHT22;11313;50.116;8.424;2023-01-29T15:37:59;26.10;40.00
22290;DHT22;11313;50.116;8.424;2023-01-29T15:40:26;26.10;40.00
22290;DHT22;11313;50.116;8.424;2023-01-29T15:42:51;26.10;40.00
22290;DHT22;11313;50.116;8.424;2023-01-29T15:45:22;26.10;40.00
22290;DHT22;11313;50.116;8.424;2023-01-29T15:47:48;26.10;40.00
22290;DHT22;11313;50.116;8.424;2023-01-29T15:50:14;26.10;40.00
22290;DHT22;11313;50.116;8.424;2023-01-29T15:52:39;26.20;40.10
22290;DHT22;11313;50.116;8.424;2023-01-29T15:55:06;26.10;40.00
22290;DHT22;11313;50.116;8.424;2023-01-29T15:57:35;26.10;40.00
22290;DHT22;11313;50.116;8.424;2023-01-29T16:00:02;26.10;40.10
22290;DHT22;11313;50.116;8.424;2023-01-29T16:04:58;26.10;40.10
22290;DHT22;11313;50.116;8.424;2023-01-29T16:07:24;26.10;40.10
22290;DHT22;11313;50.116;8.424;2023-01-29T16:09:51;26.10;40.10
22290;DHT22;11313;50.116;8.424;2023-01-29T16:12:17;26.10;40.10
22290;DHT22;11313;50.116;8.424;2023-01-29T16:14:43;26.10;40.10
22290;DHT22;11313;50.116;8.424;2023-01-29T16:17:31;26.10;40.20
22290;DHT22;11313;50.116;8.424;2023-01-29T16:20:02;26.10;40.80
22290;DHT22;11313;50.116;8.424;2023-01-29T16:22:32;26.10;40.20
22290;DHT22;11313;50.116;8.424;2023-01-29T16:25:06;26.00;40.10
22290;DHT22;11313;50.116;8.424;2023-01-29T16:27:35;26.00;40.10
22290;DHT22;11313;50.116;8.424;2023-01-29T16:30:01;26.00;40.10
22290;DHT22;11313;50.116;8.424;2023-01-29T16:32:29;26.10;40.20
22290;DHT22;11313;50.116;8.424;2023-01-29T16:34:57;26.00;40.20
22290;DHT22;11313;50.116;8.424;2023-01-29T16:37:29;26.00;40.20
22290;DHT22;11313;50.116;8.424;2023-01-29T16:39:56;26.00;40.20
22290;DHT22;11313;50.116;8.424;2023-01-29T16:42:24;26.00;40.30
22290;DHT22;11313;50.116;8.424;2023-01-29T16:44:56;26.00;40.30
22290;DHT22;11313;50.116;8.424;2023-01-29T16:47:36;26.00;40.30
22290;DHT22;11313;50.116;8.424;2023-01-29T16:50:28;26.00;40.30
22290;DHT22;11313;50.116;8.424;2023-01-29T16:53:12;26.00;40.40
22290;DHT22;11313;50.116;8.424;2023-01-29T16:55:40;25.90;40.30
22290;DHT22;11313;50.116;8.424;2023-01-29T16:58:26;26.00;40.40
22290;DHT22;11313;50.116;8.424;2023-01-29T17:00:58;25.90;40.30
22290;DHT22;11313;50.116;8.424;2023-01-29T17:03:27;25.90;40.30
22290;DHT22;11313;50.116;8.424;2023-01-29T17:05:54;25.90;40.40
22290;DHT22;11313;50.116;8.424;2023-01-29T17:08:30;25.90;40.40
22290;DHT22;11313;50.116;8.424;2023-01-29T17:10:56;25.90;40.40
22290;DHT22;11313;50.116;8.424;2023-01-29T17:13:37;25.90;40.40
22290;DHT22;11313;50.116;8.424;2023-01-29T17:16:27;25.80;40.40
22290;DHT22;11313;50.116;8.424;2023-01-29T17:18:52;25.90;40.50
22290;DHT22;11313;50.116;8.424;2023-01-29T17:21:18;25.90;40.50
22290;DHT22;11313;50.116;8.424;2023-01-29T17:23:43;25.80;40.50
22290;DHT22;11313;50.116;8.424;2023-01-29T17:26:12;25.80;40.50
22290;DHT22;11313;50.116;8.424;2023-01-29T17:28:38;25.80;40.50
22290;DHT22;11313;50.116;8.424;2023-01-29T17:31:04;25.80;40.50
22290;DHT22;11313;50.116;8.424;2023-01-29T17:33:30;25.80;40.50
22290;DHT22;11313;50.116;8.424;2023-01-29T17:35:55;25.80;40.50